Time;durP1;ratioP1;P1;durP2;ratioP2;P2;SDS_P1;SDS_P2;PMS_P1;PMS_P2;Temp;Humidity;BMP_temperature;BMP_pressure;BME280_temperature;BME280_humidity;BME280_pressure;Samples;Min_cycle;Max_cycle;Signal;HPM_P1;HPM_P2
2024/03/20 00:02:24;;;;;;;5.33;4.03;;;;;;;12.74;59.04;99021.81;6691987;29;20699;-83
2024/03/20 00:05:45;;;;;;;4.90;4.23;;;;;;;12.57;59.78;99023.31;6694348;29;20647;-80
2024/03/20 00:09:07;;;;;;;4.20;3.80;;;;;;;12.70;59.46;99041.41;6709963;29;20253;-81
2024/03/20 00:12:29;;;;;;;4.47;3.60;;;;;;;12.86;58.83;99035.53;6719836;29;20227;-81
2024/03/20 00:15:52;;;;;;;4.00;3.70;;;;;;;13.12;58.37;99028.16;6718702;29;20646;-82
2024/03/20 00:19:15;;;;;;;4.50;4.07;;;;;;;13.09;57.67;99020.44;6714520;29;20229;-81
2024/03/20 00:22:37;;;;;;;5.33;3.90;;;;;;;13.20;57.40;99030.59;6720188;29;20213;-82
2024/03/20 00:26:00;;;;;;;4.23;3.83;;;;;;;12.85;57.22;98979.72;6721030;29;20219;-81
2024/03/20 00:29:21;;;;;;;5.27;3.73;;;;;;;12.91;58.21;99022.16;6701616;29;20229;-81
2024/03/20 00:32:43;;;;;;;4.03;3.63;;;;;;;12.55;58.40;99024.56;6697008;29;20266;-81
2024/03/20 00:36:06;;;;;;;3.53;3.23;;;;;;;12.70;57.59;98998.09;6699226;29;20213;-81
2024/03/20 00:39:28;;;;;;;4.40;4.00;;;;;;;12.71;57.80;99013.28;6714698;29;20753;-81
2024/03/20 00:42:49;;;;;;;8.17;4.17;;;;;;;12.63;58.35;99003.53;6722032;29;20217;-81
2024/03/20 00:46:11;;;;;;;4.30;3.90;;;;;;;12.80;58.37;99009.31;6722179;29;20216;-82
2024/03/20 00:49:32;;;;;;;4.17;3.83;;;;;;;12.77;58.02;99009.72;6720087;29;20304;-82
2024/03/20 00:52:55;;;;;;;6.80;3.60;;;;;;;12.90;57.70;99006.97;6722480;29;20213;-81
2024/03/20 00:56:17;;;;;;;5.30;3.70;;;;;;;12.76;57.89;98999.97;6723634;29;20233;-82
2024/03/20 00:59:39;;;;;;;5.17;3.23;;;;;;;12.82;57.42;98993.69;6721648;29;20253;-81
2024/03/20 01:03:00;;;;;;;5.07;3.67;;;;;;;12.58;57.54;98991.69;6722927;29;20213;-82
2024/03/20 01:06:22;;;;;;;5.50;3.40;;;;;;;12.69;57.17;98991.84;6723680;29;20246;-82
2024/03/20 01:09:44;;;;;;;4.00;3.33;;;;;;;12.53;57.60;98976.13;6722826;29;20228;-81
2024/03/20 01:13:06;;;;;;;3.97;3.53;;;;;;;12.30;57.75;98994.69;6722909;29;20908;-82
2024/03/20 01:16:28;;;;;;;3.77;3.47;;;;;;;12.04;58.85;98996.63;6724707;29;20217;-82
2024/03/20 01:19:49;;;;;;;4.10;3.70;;;;;;;11.65;59.45;98926.41;6700936;29;20240;-82
2024/03/20 01:23:11;;;;;;;4.47;3.20;;;;;;;12.28;58.90;98985.94;6717380;29;20605;-82
2024/03/20 01:26:34;;;;;;;5.07;3.47;;;;;;;12.04;59.28;98989.31;6725774;29;20269;-82
2024/03/20 01:29:55;;;;;;;3.90;3.50;;;;;;;11.93;59.68;98991.84;6700617;29;20240;-82
2024/03/20 01:33:17;;;;;;;5.20;4.13;;;;;;;11.67;59.84;98967.53;6701400;29;20209;-82
2024/03/20 01:36:38;;;;;;;4.23;3.50;;;;;;;11.96;59.94;98983.28;6701808;29;20213;-82
2024/03/20 01:40:00;;;;;;;6.77;4.33;;;;;;;12.06;58.78;98976.44;6725246;29;20232;-82
2024/03/20 01:43:22;;;;;;;6.63;3.57;;;;;;;12.06;59.25;98983.72;6727672;29;20247;-81
2024/03/20 01:46:44;;;;;;;3.83;3.10;;;;;;;12.35;58.47;98980.53;6726135;29;20210;-82
2024/03/20 01:50:08;;;;;;;4.33;3.33;;;;;;;12.32;58.11;98970.97;6703369;29;20225;-82
2024/03/20 01:53:30;;;;;;;5.53;3.80;;;;;;;11.69;59.42;98984.38;6704709;29;20229;-82
2024/03/20 01:56:53;;;;;;;3.90;3.60;;;;;;;11.67;59.78;98975.63;6714594;29;20249;-82
2024/03/20 02:00:21;;;;;;;8.50;4.00;;;;;;;11.59;60.08;98979.38;6706869;29;20324;-82
2024/03/20 02:03:43;;;;;;;5.90;4.63;;;;;;;11.74;59.70;98979.19;6708794;29;20201;-82
2024/03/20 02:07:05;;;;;;;4.43;3.73;;;;;;;12.02;58.99;98979.75;6713336;29;20189;-82
2024/03/20 02:10:27;;;;;;;4.30;3.90;;;;;;;11.60;59.75;98988.28;6735427;29;20223;-83
2024/03/20 02:13:49;;;;;;;5.87;4.13;;;;;;;11.85;59.23;98979.38;6716164;29;20284;-82
2024/03/20 02:17:13;;;;;;;4.00;3.60;;;;;;;11.74;58.80;98984.59;6712699;29;20205;-82
2024/03/20 02:20:34;;;;;;;4.80;3.67;;;;;;;11.68;58.91;98958.41;6714530;29;20329;-81
2024/03/20 02:24:02;;;;;;;4.60;3.70;;;;;;;11.73;58.84;98967.53;6715383;29;20293;-81
2024/03/20 02:31:45;;;;;;;3.70;3.40;;;;;;;11.22;58.48;98904.34;6720956;29;20231;-81
2024/03/20 02:35:07;;;;;;;4.17;3.77;;;;;;;11.58;58.77;98980.41;6719794;29;20217;-81
2024/03/20 02:38:30;;;;;;;4.53;4.10;;;;;;;11.28;59.00;98976.38;6720051;29;20322;-82
2024/03/20 02:41:53;;;;;;;6.00;3.80;;;;;;;11.06;59.20;98963.28;6716273;29;20335;-81
2024/03/20 02:45:14;;;;;;;4.30;3.90;;;;;;;10.97;60.20;98988.78;6721220;29;20213;-82
2024/03/20 02:48:36;;;;;;;4.20;3.70;;;;;;;11.01;60.53;98984.63;6720348;29;20206;-82
2024/03/20 02:56:58;;;;;;;4.33;3.67;;;;;;;11.42;59.17;98972.69;6638561;29;20246;-81
2024/03/20 03:08:57;;;;;;;7.70;4.10;;;;;;;11.29;58.98;98966.44;6614496;30;20308;-82
2024/03/20 03:12:23;;;;;;;4.80;4.40;;;;;;;11.35;58.70;98966.47;6589348;30;20229;-81
2024/03/20 03:15:45;;;;;;;5.07;4.03;;;;;;;11.13;59.19;98972.22;6613995;29;20302;-81
2024/03/20 03:19:07;;;;;;;6.17;4.70;;;;;;;11.14;60.02;98976.56;6613318;29;20269;-82
2024/03/20 03:22:29;;;;;;;6.03;4.37;;;;;;;10.88;60.15;98971.13;6615313;30;20593;-82
2024/03/20 03:25:50;;;;;;;7.47;5.70;;;;;;;11.09;59.64;98981.78;6615278;30;20584;-81
2024/03/20 03:29:13;;;;;;;5.00;4.60;;;;;;;10.98;60.01;98980.47;6707420;29;20237;-82
2024/03/20 03:32:35;;;;;;;5.20;4.70;;;;;;;10.95;59.74;98983.59;6720583;29;20238;-81
2024/03/20 03:36:05;;;;;;;4.97;4.53;;;;;;;10.39;59.99;98930.91;6720824;29;20266;-81
2024/03/20 03:39:26;;;;;;;5.47;4.73;;;;;;;10.43;60.04;98893.59;6719171;29;20244;-82
2024/03/20 03:42:48;;;;;;;10.27;5.10;;;;;;;10.76;59.81;98970.88;6697278;29;20216;-81
2024/03/20 03:46:11;;;;;;;5.63;4.80;;;;;;;10.79;60.80;98993.91;6708206;29;20230;-82
2024/03/20 03:49:33;;;;;;;5.87;5.03;;;;;;;10.94;60.16;98989.19;6716646;29;20324;-81
2024/03/20 03:52:54;;;;;;;8.90;5.10;;;;;;;10.85;59.82;99002.03;6695112;29;20238;-82
2024/03/20 03:56:16;;;;;;;6.13;5.23;;;;;;;10.63;60.86;99000.47;6695302;29;20262;-82
2024/03/20 03:59:37;;;;;;;6.87;5.83;;;;;;;10.80;60.78;98977.53;6698349;29;20248;-81
2024/03/20 04:03:01;;;;;;;7.73;5.07;;;;;;;10.99;60.17;99000.22;6721076;29;20560;-81
2024/03/20 04:06:23;;;;;;;9.67;6.50;;;;;;;10.78;60.30;99003.03;6712523;29;20225;-82
2024/03/20 04:09:45;;;;;;;5.53;4.77;;;;;;;10.82;60.34;99007.00;6700179;29;20595;-81
2024/03/20 04:13:06;;;;;;;5.43;4.60;;;;;;;10.92;60.15;99007.44;6721028;29;20563;-82
2024/03/20 04:16:28;;;;;;;5.37;4.87;;;;;;;10.31;61.26;99008.38;6720261;29;20216;-82
2024/03/20 04:19:50;;;;;;;7.50;5.60;;;;;;;10.94;60.89;99002.69;6716402;29;20265;-81
2024/03/20 04:23:12;;;;;;;5.60;5.03;;;;;;;11.08;59.78;99004.38;6715249;29;20876;-82
2024/03/20 04:26:34;;;;;;;6.37;5.37;;;;;;;10.99;59.71;99005.59;6720305;29;20299;-82
2024/03/20 04:29:55;;;;;;;5.53;4.90;;;;;;;10.93;59.63;99009.13;6713621;29;20222;-81
2024/03/20 04:33:17;;;;;;;5.33;4.80;;;;;;;10.91;60.01;99003.06;6695228;29;20274;-82
2024/03/20 04:36:40;;;;;;;6.07;5.30;;;;;;;11.03;59.70;99001.47;6693860;29;20614;-81
2024/03/20 04:40:03;;;;;;;5.83;5.10;;;;;;;10.85;60.01;99003.88;6715751;29;20685;-81
2024/03/20 04:43:24;;;;;;;6.30;4.80;;;;;;;10.98;59.69;99002.06;6719543;29;20213;-82
2024/03/20 04:46:46;;;;;;;5.83;5.23;;;;;;;10.74;60.06;99001.78;6718363;29;20708;-81
2024/03/20 04:50:11;;;;;;;7.90;5.40;;;;;;;10.00;61.96;98984.56;6711793;29;20246;-82
2024/03/20 04:53:35;;;;;;;7.70;6.37;;;;;;;10.44;61.95;99003.91;6693641;29;20221;-82
2024/03/20 04:56:57;;;;;;;9.20;7.53;;;;;;;10.05;63.53;98997.47;6693511;29;20304;-82
2024/03/20 05:00:20;;;;;;;10.93;8.87;;;;;;;10.69;61.90;99001.56;6699487;29;20257;-82
2024/03/20 05:03:42;;;;;;;11.20;8.47;;;;;;;11.12;61.13;99002.94;6719234;29;20213;-81
2024/03/20 05:07:04;;;;;;;10.50;7.87;;;;;;;11.37;59.71;99004.88;6720340;29;20217;-82
2024/03/20 05:10:27;;;;;;;12.17;8.37;;;;;;;11.29;59.85;98996.97;6710087;29;20287;-82
2024/03/20 05:13:48;;;;;;;11.77;8.43;;;;;;;11.09;60.13;99000.66;6695083;29;20636;-82
2024/03/20 05:17:10;;;;;;;11.40;9.07;;;;;;;11.41;59.95;99008.81;6696102;29;20214;-82
2024/03/20 05:20:31;;;;;;;9.87;7.97;;;;;;;11.28;59.60;98995.28;6702776;29;20577;-82
2024/03/20 05:23:52;;;;;;;10.90;7.80;;;;;;;11.35;59.52;99008.81;6696006;29;20258;-82
2024/03/20 05:27:14;;;;;;;9.60;7.73;;;;;;;11.13;59.44;98947.94;6700525;29;20239;-82
2024/03/20 05:30:36;;;;;;;10.80;8.23;;;;;;;11.13;58.69;98931.75;6705026;29;20281;-83
2024/03/20 05:33:57;;;;;;;8.53;7.20;;;;;;;11.48;58.81;98998.03;6701918;29;20569;-83
2024/03/20 05:37:19;;;;;;;10.27;8.20;;;;;;;11.41;59.20;98998.03;6710892;29;20210;-84
2024/03/20 05:40:40;;;;;;;9.80;8.77;;;;;;;11.25;59.20;99009.19;6710567;29;20237;-83
2024/03/20 05:44:03;;;;;;;11.70;8.50;;;;;;;10.93;60.58;98998.31;6706087;29;20220;-83
2024/03/20 05:47:25;;;;;;;10.37;8.43;;;;;;;10.95;60.78;99007.03;6705414;29;20663;-83
2024/03/20 05:50:46;;;;;;;10.50;8.57;;;;;;;11.27;60.44;99019.81;6700146;29;20268;-83
2024/03/20 05:54:07;;;;;;;11.30;9.10;;;;;;;11.31;59.97;99010.25;6700755;29;20214;-83
2024/03/20 05:57:29;;;;;;;10.40;9.30;;;;;;;10.98;60.74;99004.75;6700030;29;20213;-83
2024/03/20 06:00:51;;;;;;;10.87;8.90;;;;;;;11.09;61.06;99008.75;6699260;29;20257;-83
2024/03/20 06:04:13;;;;;;;11.97;9.93;;;;;;;11.30;60.55;99012.13;6725415;29;20225;-84
2024/03/20 06:07:34;;;;;;;9.90;8.90;;;;;;;11.59;59.75;99014.50;6726158;29;20213;-83
2024/03/20 06:10:58;;;;;;;14.40;10.13;;;;;;;11.18;60.16;98986.78;6719816;29;20233;-83
2024/03/20 06:14:20;;;;;;;10.33;9.23;;;;;;;11.10;61.96;99023.91;6704445;29;20217;-84
2024/03/20 06:17:43;;;;;;;11.90;9.10;;;;;;;10.91;62.09;99028.19;6720888;29;20672;-83
2024/03/20 06:21:04;;;;;;;12.23;8.80;;;;;;;11.11;61.97;99036.34;6724382;29;20245;-84
2024/03/20 06:24:25;;;;;;;10.73;9.60;;;;;;;11.76;60.75;99028.41;6721440;29;20220;-83
2024/03/20 06:27:46;;;;;;;11.93;8.27;;;;;;;11.72;60.09;98997.44;6709947;29;20212;-82
2024/03/20 06:31:09;;;;;;;13.33;9.23;;;;;;;12.16;60.08;99033.59;6722032;29;20234;-82
2024/03/20 06:34:31;;;;;;;9.40;8.37;;;;;;;12.18;60.28;99046.91;6714425;29;20262;-82
2024/03/20 06:37:54;;;;;;;8.87;7.77;;;;;;;12.52;59.41;99042.03;6697608;29;20744;-82
2024/03/20 06:41:17;;;;;;;8.67;7.47;;;;;;;12.92;57.98;99021.94;6694415;29;20265;-82
2024/03/20 06:44:38;;;;;;;8.43;7.10;;;;;;;13.67;56.26;99045.50;6694952;29;20218;-82
2024/03/20 06:48:01;;;;;;;10.00;6.93;;;;;;;13.77;55.21;99040.44;6695838;29;20317;-85
2024/03/20 06:51:23;;;;;;;8.00;7.20;;;;;;;14.45;55.22;99036.78;6692728;29;20234;-85
2024/03/20 06:54:46;;;;;;;8.10;7.30;;;;;;;14.70;54.08;99043.78;6702241;29;20287;-85
2024/03/20 06:58:08;;;;;;;7.73;6.33;;;;;;;14.77;53.97;99041.84;6718501;29;20215;-86
2024/03/20 07:01:29;;;;;;;6.70;6.07;;;;;;;15.36;52.82;99038.41;6717424;29;20328;-86
2024/03/20 07:04:51;;;;;;;7.23;6.40;;;;;;;14.84;53.22;99047.19;6707360;29;20683;-85
2024/03/20 07:08:13;;;;;;;7.10;6.40;;;;;;;15.48;52.93;99042.00;6692704;29;20240;-85
2024/03/20 07:11:35;;;;;;;7.20;6.57;;;;;;;15.41;52.62;99046.72;6693483;29;20308;-86
2024/03/20 07:14:57;;;;;;;9.07;6.27;;;;;;;15.50;52.20;99043.44;6706846;29;20277;-82
2024/03/20 07:18:18;;;;;;;7.33;6.63;;;;;;;15.68;52.04;99048.81;6716726;29;20653;-85
2024/03/20 07:21:40;;;;;;;8.33;6.70;;;;;;;15.90;51.78;99046.38;6708602;29;20258;-85
2024/03/20 07:25:03;;;;;;;7.37;6.67;;;;;;;15.85;51.35;99059.84;6697759;29;20268;-84
2024/03/20 07:28:25;;;;;;;6.47;5.73;;;;;;;15.36;52.47;99052.00;6697916;29;20226;-82
2024/03/20 07:31:46;;;;;;;7.00;5.87;;;;;;;16.29;51.17;99052.00;6720668;29;20223;-81
2024/03/20 07:35:08;;;;;;;6.17;5.57;;;;;;;16.62;50.34;99052.28;6710561;29;20286;-82
2024/03/20 07:38:30;;;;;;;6.10;5.50;;;;;;;17.09;49.28;99045.69;6718051;29;20210;-82
2024/03/20 07:41:53;;;;;;;9.07;5.50;;;;;;;16.98;49.29;99049.28;6724099;29;20240;-82
2024/03/20 07:45:14;;;;;;;5.53;4.80;;;;;;;16.50;50.14;99058.78;6710427;29;20205;-83
2024/03/20 07:48:39;;;;;;;5.63;5.13;;;;;;;16.84;49.25;99058.78;6726747;29;20215;-85
2024/03/20 07:52:01;;;;;;;5.90;5.30;;;;;;;17.10;48.45;99062.88;6724049;29;20217;-83
2024/03/20 07:55:23;;;;;;;6.83;5.57;;;;;;;16.71;48.90;98996.41;6725032;29;20235;-83
2024/03/20 07:58:45;;;;;;;5.37;4.87;;;;;;;17.98;47.29;99061.38;6724141;29;20672;-83
2024/03/20 08:02:07;;;;;;;6.07;4.63;;;;;;;18.00;47.09;99046.44;6724322;29;20259;-83
2024/03/20 08:05:28;;;;;;;5.87;5.00;;;;;;;18.28;45.75;99068.16;6726388;29;20235;-82
2024/03/20 08:08:49;;;;;;;6.20;5.10;;;;;;;18.59;45.63;99067.63;6713127;29;20213;-83
2024/03/20 08:12:11;;;;;;;6.43;5.03;;;;;;;19.08;45.53;99054.91;6721461;29;20265;-82
2024/03/20 08:15:33;;;;;;;6.03;5.20;;;;;;;19.45;44.26;99056.00;6716415;29;20257;-82
2024/03/20 08:18:54;;;;;;;4.90;4.37;;;;;;;19.53;42.74;99050.91;6718224;29;20807;-82
2024/03/20 08:22:16;;;;;;;4.80;4.37;;;;;;;20.30;42.39;99044.00;6724826;29;20233;-81
2024/03/20 08:25:37;;;;;;;4.87;4.33;;;;;;;20.67;39.74;99049.47;6726935;29;20213;-82
2024/03/20 08:28:58;;;;;;;8.53;4.80;;;;;;;20.60;40.05;99046.97;6726452;29;20646;-83
2024/03/20 08:32:20;;;;;;;5.93;4.47;;;;;;;21.11;38.67;99053.63;6722248;29;20213;-82
2024/03/20 08:35:42;;;;;;;4.67;4.27;;;;;;;20.68;38.86;99049.22;6712215;29;20630;-83
2024/03/20 08:39:04;;;;;;;5.73;4.90;;;;;;;20.63;39.32;99048.38;6715332;29;20250;-82
2024/03/20 08:42:24;;;;;;;5.57;5.00;;;;;;;21.19;39.77;99048.47;6701135;29;20233;-82
2024/03/20 08:45:46;;;;;;;5.90;5.17;;;;;;;21.11;38.79;99056.38;6699957;29;20242;-81
2024/03/20 08:49:08;;;;;;;5.47;4.90;;;;;;;21.31;38.59;99041.63;6712945;29;20233;-85
2024/03/20 08:52:30;;;;;;;5.23;4.37;;;;;;;20.87;37.83;98992.06;6712170;29;20212;-83
2024/03/20 08:55:52;;;;;;;4.90;4.27;;;;;;;20.12;38.77;98981.44;6711621;29;20220;-80
2024/03/20 08:59:12;;;;;;;5.27;4.33;;;;;;;21.07;38.59;99022.34;6713511;29;20297;-81
2024/03/20 09:02:34;;;;;;;16.03;9.73;;;;;;;20.74;39.09;99022.69;6710283;29;20236;-83
2024/03/20 09:05:56;;;;;;;90.80;53.77;;;;;;;20.39;39.07;99019.72;6707591;29;20312;-81
2024/03/20 09:09:17;;;;;;;7.43;5.13;;;;;;;20.67;38.37;99026.47;6706009;29;20226;-83
2024/03/20 09:12:39;;;;;;;4.93;4.53;;;;;;;19.89;40.83;99035.66;6709022;29;20304;-83
2024/03/20 09:15:59;;;;;;;6.40;4.07;;;;;;;20.03;39.58;99032.25;6711082;29;20277;-82
2024/03/20 09:19:21;;;;;;;4.30;3.90;;;;;;;20.30;39.80;99024.00;6715542;29;20312;-82
2024/03/20 09:22:44;;;;;;;6.17;4.40;;;;;;;21.10;38.60;99002.63;6715536;29;20289;-81
2024/03/20 09:26:05;;;;;;;4.77;3.53;;;;;;;19.79;39.72;98950.72;6719581;29;20698;-82
2024/03/20 09:29:27;;;;;;;6.97;3.87;;;;;;;21.11;38.66;99026.19;6707941;29;20283;-84
2024/03/20 09:32:48;;;;;;;4.33;3.27;;;;;;;21.83;37.85;99014.13;6707860;29;20362;-84
2024/03/20 09:36:09;;;;;;;4.20;3.80;;;;;;;21.49;38.27;99012.91;6704587;29;20204;-80
2024/03/20 09:39:32;;;;;;;4.53;3.60;;;;;;;22.41;36.72;99008.91;6706993;29;20239;-81
2024/03/20 09:42:53;;;;;;;5.00;3.80;;;;;;;21.01;38.07;99015.19;6691431;29;20784;-82
2024/03/20 09:46:19;;;;;;;6.37;3.40;;;;;;;20.89;38.43;99009.94;6712044;29;20244;-82
2024/03/20 09:49:39;;;;;;;8.03;4.30;;;;;;;22.28;36.91;99005.88;6689093;29;20248;-83
2024/03/20 09:53:01;;;;;;;6.30;3.90;;;;;;;22.28;36.57;99016.88;6722099;29;20218;-81
2024/03/20 09:56:25;;;;;;;5.07;4.20;;;;;;;22.81;36.51;99006.13;6713513;29;20274;-80
2024/03/20 09:59:47;;;;;;;6.27;4.47;;;;;;;23.02;37.08;98991.19;6711811;29;20277;-82
2024/03/20 10:03:09;;;;;;;3.87;3.27;;;;;;;22.90;35.54;98990.69;6712883;29;20240;-84
2024/03/20 10:06:31;;;;;;;4.70;3.43;;;;;;;23.23;34.32;98998.31;6713753;29;20235;-83
2024/03/20 10:09:52;;;;;;;3.70;3.00;;;;;;;23.12;34.97;98980.16;6714901;29;20644;-80
2024/03/20 10:13:15;;;;;;;3.93;3.10;;;;;;;24.16;32.56;98966.06;6714807;29;20758;-81
2024/03/20 10:16:37;;;;;;;5.63;3.00;;;;;;;24.68;32.48;98977.16;6712961;29;20587;-82
2024/03/20 10:19:59;;;;;;;2.73;2.53;;;;;;;23.36;33.48;98972.91;6711656;29;20606;-82
2024/03/20 10:23:19;;;;;;;5.50;3.30;;;;;;;23.14;34.88;98974.38;6714340;29;20807;-80
2024/03/20 10:26:42;;;;;;;3.60;3.10;;;;;;;22.63;34.68;98973.72;6711392;29;20217;-83
2024/03/20 10:30:08;;;;;;;3.87;2.83;;;;;;;23.57;32.48;98982.72;6707376;29;20267;-82
2024/03/20 10:33:30;;;;;;;2.53;2.33;;;;;;;23.56;32.03;98970.06;6694424;29;20219;-82
2024/03/20 10:36:50;;;;;;;3.33;2.33;;;;;;;24.10;32.17;98970.81;6692410;29;20728;-83
2024/03/20 10:40:16;;;;;;;4.63;2.33;;;;;;;23.89;32.04;98974.81;6692326;29;20832;-83
2024/03/20 10:43:37;;;;;;;4.73;3.13;;;;;;;24.41;32.12;98974.94;6689407;29;20240;-83
2024/03/20 10:47:00;;;;;;;3.70;2.80;;;;;;;24.56;30.56;98976.72;6689795;29;20210;-82
2024/03/20 10:50:21;;;;;;;4.40;2.40;;;;;;;24.58;30.51;98963.47;6691568;29;20813;-83
2024/03/20 10:53:42;;;;;;;5.70;2.10;;;;;;;24.28;31.09;98919.66;6691062;29;20226;-82
2024/03/20 10:57:04;;;;;;;2.93;2.13;;;;;;;25.01;30.13;98966.03;6690116;29;20262;-83
2024/03/20 11:00:25;;;;;;;7.27;2.27;;;;;;;24.76;30.17;98965.50;6687419;29;20281;-84
2024/03/20 11:03:51;;;;;;;2.27;2.10;;;;;;;25.17;29.38;98961.97;6688994;29;20278;-84
2024/03/20 11:07:43;;;;;;;2.30;2.10;;;;;;;25.33;28.86;98957.94;6699846;29;20205;-84
2024/03/20 11:11:04;;;;;;;2.63;2.13;;;;;;;25.36;28.80;98962.84;6641927;29;20251;-83
2024/03/20 11:14:28;;;;;;;2.33;2.10;;;;;;;25.49;28.11;98953.00;6712663;29;20312;-84
2024/03/20 11:17:52;;;;;;;2.20;1.97;;;;;;;25.84;28.13;98966.31;6713022;29;20222;-85
2024/03/20 11:21:14;;;;;;;2.70;2.50;;;;;;;26.12;27.62;98949.56;6713376;29;20252;-84
2024/03/20 11:24:36;;;;;;;2.47;2.00;;;;;;;25.74;27.96;98959.00;6712280;29;20219;-83
2024/03/20 11:27:58;;;;;;;4.30;2.27;;;;;;;25.66;28.47;98943.06;6712842;29;20367;-84
2024/03/20 11:31:20;;;;;;;2.23;2.00;;;;;;;25.79;27.67;98947.84;6709634;29;20350;-84
2024/03/20 11:34:42;;;;;;;2.37;1.90;;;;;;;25.55;27.92;98949.06;6713738;29;20216;-84
2024/03/20 11:38:04;;;;;;;3.13;2.10;;;;;;;24.81;27.92;98943.38;6697641;29;20238;-83
2024/03/20 11:41:26;;;;;;;2.53;2.10;;;;;;;24.79;27.54;98863.66;6706528;29;20316;-84
2024/03/20 11:44:46;;;;;;;3.33;2.20;;;;;;;25.22;27.15;98931.53;6719120;29;20250;-84
2024/03/20 11:48:09;;;;;;;2.93;2.10;;;;;;;25.76;26.62;98920.00;6712365;29;20596;-84
2024/03/20 11:51:30;;;;;;;2.30;1.80;;;;;;;25.21;26.71;98935.44;6712503;29;20302;-81
2024/03/20 11:54:53;;;;;;;3.13;1.83;;;;;;;25.36;27.03;98915.09;6707393;29;20210;-84
2024/03/20 11:58:14;;;;;;;2.13;2.03;;;;;;;24.96;27.30;98938.50;6707219;29;20309;-85
2024/03/20 12:01:35;;;;;;;2.07;1.87;;;;;;;25.60;28.03;98926.91;6711642;29;20590;-84
2024/03/20 12:04:57;;;;;;;1.83;1.73;;;;;;;24.47;28.36;98946.19;6709705;29;20307;-81
2024/03/20 12:08:19;;;;;;;2.20;1.73;;;;;;;24.72;27.99;98948.72;6701817;29;20294;-84
2024/03/20 12:11:42;;;;;;;2.27;2.07;;;;;;;23.64;29.27;98950.19;6709771;29;20240;-84
2024/03/20 12:15:06;;;;;;;2.63;1.90;;;;;;;24.34;28.36;98944.13;6707870;29;20276;-82
2024/03/20 12:18:27;;;;;;;2.17;1.93;;;;;;;24.15;27.81;98851.44;6704126;29;20236;-84
2024/03/20 12:21:49;;;;;;;2.63;1.70;;;;;;;25.56;26.89;98940.50;6697294;29;20730;-83
2024/03/20 12:25:09;;;;;;;3.00;1.90;;;;;;;25.71;26.21;98923.66;6698763;29;20589;-82
2024/03/20 12:28:32;;;;;;;4.27;1.90;;;;;;;26.16;26.95;98922.13;6703838;29;20683;-84
2024/03/20 12:31:54;;;;;;;3.20;2.00;;;;;;;25.69;26.93;98914.88;6708692;29;20274;-84
2024/03/20 12:35:14;;;;;;;2.13;1.87;;;;;;;25.59;26.89;98911.47;6710221;29;20313;-83
2024/03/20 12:38:37;;;;;;;2.10;1.90;;;;;;;26.21;25.48;98910.97;6715949;29;20567;-83
2024/03/20 12:41:58;;;;;;;2.63;1.60;;;;;;;25.55;26.66;98918.69;6711232;29;20233;-83
2024/03/20 12:45:22;;;;;;;1.83;1.50;;;;;;;26.01;25.88;98912.16;6711187;29;20370;-83
2024/03/20 12:48:43;;;;;;;2.10;1.90;;;;;;;26.06;25.50;98920.34;6710939;29;20720;-83
2024/03/20 12:52:04;;;;;;;1.80;1.70;;;;;;;25.53;26.11;98913.47;6707860;29;20493;-83
2024/03/20 12:55:27;;;;;;;2.50;1.87;;;;;;;25.01;25.72;98869.44;6710131;29;20218;-84
2024/03/20 12:58:48;;;;;;;1.70;1.60;;;;;;;25.98;26.49;98918.28;6710139;29;20236;-84
2024/03/20 13:02:14;;;;;;;2.40;1.53;;;;;;;25.90;25.58;98835.28;6709552;29;20233;-84
2024/03/20 13:05:36;;;;;;;1.60;1.50;;;;;;;26.79;25.04;98906.59;6710181;29;20321;-84
2024/03/20 13:08:58;;;;;;;3.37;1.67;;;;;;;26.76;24.33;98898.88;6703436;29;20337;-83
2024/03/20 13:12:19;;;;;;;2.57;1.70;;;;;;;26.92;24.13;98905.75;6708005;29;20225;-84
2024/03/20 13:15:41;;;;;;;1.77;1.43;;;;;;;25.56;24.29;98890.78;6708955;29;20295;-84
2024/03/20 13:19:04;;;;;;;3.67;1.63;;;;;;;25.66;24.99;98890.59;6708864;29;20474;-83
2024/03/20 13:22:26;;;;;;;1.93;1.43;;;;;;;25.99;24.71;98844.50;6683873;29;20260;-82
2024/03/20 13:25:49;;;;;;;1.43;1.20;;;;;;;26.33;24.96;98884.50;6683798;29;20310;-82
2024/03/20 13:29:13;;;;;;;1.60;1.50;;;;;;;26.62;23.50;98881.47;6682324;29;20727;-84
2024/03/20 13:32:34;;;;;;;1.27;1.17;;;;;;;26.27;23.78;98888.47;6685924;29;20305;-83
2024/03/20 13:35:57;;;;;;;1.57;1.23;;;;;;;26.40;22.99;98848.97;6703759;29;20258;-83
2024/03/20 13:39:22;;;;;;;1.50;1.40;;;;;;;26.07;23.04;98888.03;6704220;29;20242;-83
2024/03/20 13:42:59;;;;;;;1.47;1.30;;;;;;;25.07;24.11;98876.53;6691055;29;20240;-82
2024/03/20 13:46:21;;;;;;;1.63;1.20;;;;;;;25.98;23.70;98882.38;6683558;29;20201;-83
2024/03/20 13:49:43;;;;;;;1.40;1.10;;;;;;;26.25;23.56;98881.63;6681793;29;20382;-84
2024/03/20 13:53:06;;;;;;;1.47;1.23;;;;;;;25.88;23.30;98876.16;6683824;29;20218;-81
2024/03/20 13:56:27;;;;;;;1.27;1.20;;;;;;;25.66;22.33;98881.50;6696413;29;20216;-81
2024/03/20 13:59:48;;;;;;;1.47;0.87;;;;;;;25.70;22.06;98877.00;6697062;29;20346;-81
2024/03/20 14:03:14;;;;;;;0.80;0.80;;;;;;;25.82;23.38;98874.59;6678006;29;20236;-83
2024/03/20 14:06:35;;;;;;;1.73;1.37;;;;;;;26.15;22.97;98874.34;6685342;29;20238;-82
2024/03/20 14:09:58;;;;;;;1.20;1.10;;;;;;;26.35;22.73;98864.81;6685831;29;20234;-81
2024/03/20 14:13:20;;;;;;;1.17;1.00;;;;;;;26.24;21.98;98866.97;6701197;29;20217;-80
2024/03/20 14:16:40;;;;;;;1.17;1.10;;;;;;;26.25;22.14;98865.84;6712581;29;20259;-81
2024/03/20 14:20:02;;;;;;;1.13;1.03;;;;;;;26.47;21.43;98854.91;6684754;29;20630;-81
2024/03/20 14:23:23;;;;;;;2.77;1.20;;;;;;;26.17;22.26;98852.72;6692294;29;20229;-82
2024/03/20 14:26:47;;;;;;;1.23;1.00;;;;;;;26.34;22.38;98847.44;6703488;29;20220;-82
2024/03/20 14:30:09;;;;;;;2.70;1.13;;;;;;;26.51;21.87;98841.28;6693144;29;20224;-81
2024/03/20 14:33:30;;;;;;;1.30;1.20;;;;;;;26.80;22.40;98852.88;6705290;29;20267;-82
2024/03/20 14:36:51;;;;;;;0.80;0.80;;;;;;;26.65;22.12;98850.44;6692131;29;20306;-82
2024/03/20 14:40:13;;;;;;;1.77;1.40;;;;;;;26.52;22.11;98851.22;6694935;29;20235;-82
2024/03/20 14:43:36;;;;;;;1.33;1.23;;;;;;;26.03;22.85;98843.59;6703467;29;20233;-80
2024/03/20 14:46:58;;;;;;;1.93;1.33;;;;;;;25.74;21.96;98842.97;6694064;29;20221;-81
2024/03/20 14:50:20;;;;;;;1.10;1.10;;;;;;;24.95;22.88;98847.75;6689057;29;20291;-80
2024/03/20 14:53:43;;;;;;;1.80;1.30;;;;;;;24.93;22.42;98837.03;6703226;29;20232;-81
2024/03/20 14:57:05;;;;;;;1.30;1.20;;;;;;;24.00;23.45;98846.09;6694580;29;20216;-81
2024/03/20 15:00:27;;;;;;;1.73;1.20;;;;;;;24.92;23.55;98835.38;6698279;29;20240;-82
2024/03/20 15:03:50;;;;;;;2.00;1.17;;;;;;;25.38;23.40;98836.41;6706704;29;20235;-79
2024/03/20 15:07:12;;;;;;;1.37;1.27;;;;;;;25.65;22.77;98819.13;6707170;29;20540;-83
2024/03/20 15:10:34;;;;;;;2.97;1.20;;;;;;;25.66;23.82;98827.06;6702611;29;20263;-83
2024/03/20 15:13:56;;;;;;;1.40;1.30;;;;;;;25.68;23.78;98812.97;6694280;29;20217;-80
2024/03/20 15:17:19;;;;;;;2.17;1.97;;;;;;;25.41;24.24;98808.16;6685963;29;20236;-79
2024/03/20 15:20:41;;;;;;;99.33;47.23;;;;;;;24.88;25.40;98815.03;6679423;29;20313;-78
2024/03/20 15:24:03;;;;;;;26.67;14.13;;;;;;;24.93;24.14;98812.19;6688957;29;20263;-79
2024/03/20 15:27:25;;;;;;;18.07;13.27;;;;;;;25.26;24.04;98808.41;6704202;29;20680;-80
2024/03/20 15:30:45;;;;;;;1.60;1.50;;;;;;;25.34;24.37;98796.69;6686657;29;20236;-82
2024/03/20 15:34:08;;;;;;;2.53;1.60;;;;;;;24.83;23.65;98817.84;6715768;29;20246;-83
2024/03/20 15:37:29;;;;;;;2.43;1.33;;;;;;;24.58;24.50;98828.38;6697812;29;20564;-82
2024/03/20 15:40:51;;;;;;;1.53;1.20;;;;;;;24.23;24.17;98793.78;6695393;29;20260;-81
2024/03/20 15:44:13;;;;;;;1.30;1.20;;;;;;;24.89;24.06;98769.75;6709219;29;20232;-81
2024/03/20 15:47:35;;;;;;;1.40;1.23;;;;;;;25.37;24.39;98825.66;6714760;29;20745;-84
2024/03/20 15:50:59;;;;;;;1.20;1.10;;;;;;;25.28;24.55;98814.47;6720611;29;20240;-83
2024/03/20 15:54:20;;;;;;;2.70;2.20;;;;;;;24.87;25.58;98766.50;6727078;29;20222;-83
2024/03/20 15:57:44;;;;;;;1.50;1.40;;;;;;;25.46;25.08;98818.31;6725464;29;20217;-83
2024/03/20 16:01:05;;;;;;;1.50;1.40;;;;;;;25.33;24.52;98817.16;6712657;29;20234;-84
2024/03/20 16:04:27;;;;;;;1.23;1.13;;;;;;;24.85;23.47;98821.16;6708038;29;20238;-83
2024/03/20 16:07:50;;;;;;;1.30;1.20;;;;;;;25.07;24.92;98810.31;6722502;29;20218;-82